sensor_id;sensor_type;location;lat;lon;timestamp;temperature;humidity
11925;DHT22;6022;48.768;18.608;2023-08-20T00:01:41;20.90;99.90
11925;DHT22;6022;48.768;18.608;2023-08-20T00:04:09;21.70;99.90
11925;DHT22;6022;48.768;18.608;2023-08-20T00:06:36;22.10;99.90
11925;DHT22;6022;48.768;18.608;2023-08-20T00:09:04;20.90;99.90
11925;DHT22;6022;48.768;18.608;2023-08-20T00:11:33;21.50;99.90
11925;DHT22;6022;48.768;18.608;2023-08-20T00:16:28;22.40;99.90
11925;DHT22;6022;48.768;18.608;2023-08-20T00:18:56;21.10;99.90
11925;DHT22;6022;48.768;18.608;2023-08-20T00:21:23;21.40;99.90
11925;DHT22;6022;48.768;18.608;2023-08-20T00:23:51;20.90;99.90
11925;DHT22;6022;48.768;18.608;2023-08-20T00:26:18;21.70;99.90
11925;DHT22;6022;48.768;18.608;2023-08-20T00:31:13;21.50;99.90
11925;DHT22;6022;48.768;18.608;2023-08-20T00:33:40;20.70;99.90
11925;DHT22;6022;48.768;18.608;2023-08-20T00:36:23;21.00;99.90
11925;DHT22;6022;48.768;18.608;2023-08-20T00:38:50;22.00;99.90
11925;DHT22;6022;48.768;18.608;2023-08-20T00:41:17;21.40;99.90
11925;DHT22;6022;48.768;18.608;2023-08-20T00:43:44;20.50;99.90
11925;DHT22;6022;48.768;18.608;2023-08-20T00:46:11;21.50;99.90
11925;DHT22;6022;48.768;18.608;2023-08-20T00:48:38;21.10;99.90
11925;DHT22;6022;48.768;18.608;2023-08-20T00:51:05;20.80;99.90
11925;DHT22;6022;48.768;18.608;2023-08-20T00:53:33;21.20;99.90
11925;DHT22;6022;48.768;18.608;2023-08-20T00:56:00;21.10;99.90
11925;DHT22;6022;48.768;18.608;2023-08-20T00:58:27;21.40;99.90
11925;DHT22;6022;48.768;18.608;2023-08-20T01:00:54;21.20;99.90
11925;DHT22;6022;48.768;18.608;2023-08-20T01:03:21;21.70;99.90
11925;DHT22;6022;48.768;18.608;2023-08-20T01:05:53;21.10;99.90
11925;DHT22;6022;48.768;18.608;2023-08-20T01:08:35;21.10;99.90
11925;DHT22;6022;48.768;18.608;2023-08-20T01:11:17;21.30;99.90
11925;DHT22;6022;48.768;18.608;2023-08-20T01:14:16;21.60;99.90
11925;DHT22;6022;48.768;18.608;2023-08-20T01:16:45;21.30;99.90
11925;DHT22;6022;48.768;18.608;2023-08-20T01:19:17;21.30;99.90
11925;DHT22;6022;48.768;18.608;2023-08-20T01:28:44;21.10;99.90
11925;DHT22;6022;48.768;18.608;2023-08-20T01:30:59;21.30;99.90
11925;DHT22;6022;48.768;18.608;2023-08-20T01:33:30;21.00;99.90
11925;DHT22;6022;48.768;18.608;2023-08-20T01:35:58;21.10;99.90
11925;DHT22;6022;48.768;18.608;2023-08-20T01:38:25;21.00;99.90
11925;DHT22;6022;48.768;18.608;2023-08-20T01:40:52;20.90;99.90
11925;DHT22;6022;48.768;18.608;2023-08-20T01:43:19;20.90;99.90
11925;DHT22;6022;48.768;18.608;2023-08-20T01:45:46;20.90;99.90
11925;DHT22;6022;48.768;18.608;2023-08-20T01:48:13;20.90;99.90
11925;DHT22;6022;48.768;18.608;2023-08-20T01:50:40;20.80;99.90
11925;DHT22;6022;48.768;18.608;2023-08-20T01:53:07;20.70;99.90
11925;DHT22;6022;48.768;18.608;2023-08-20T01:55:34;20.70;99.90
11925;DHT22;6022;48.768;18.608;2023-08-20T01:58:01;20.70;99.90
11925;DHT22;6022;48.768;18.608;2023-08-20T02:00:29;20.70;99.90
11925;DHT22;6022;48.768;18.608;2023-08-20T02:02:57;20.60;99.90
11925;DHT22;6022;48.768;18.608;2023-08-20T02:05:25;20.90;99.90
11925;DHT22;6022;48.768;18.608;2023-08-20T02:07:53;20.80;99.90
11925;DHT22;6022;48.768;18.608;2023-08-20T02:10:20;20.70;99.90
11925;DHT22;6022;48.768;18.608;2023-08-20T02:12:48;20.70;99.90
11925;DHT22;6022;48.768;18.608;2023-08-20T02:15:15;20.70;99.90
11925;DHT22;6022;48.768;18.608;2023-08-20T02:17:42;20.80;99.90
11925;DHT22;6022;48.768;18.608;2023-08-20T02:20:09;20.70;99.90
11925;DHT22;6022;48.768;18.608;2023-08-20T02:22:39;20.70;99.90
11925;DHT22;6022;48.768;18.608;2023-08-20T02:25:06;20.70;99.90
11925;DHT22;6022;48.768;18.608;2023-08-20T02:27:34;20.70;99.90
11925;DHT22;6022;48.768;18.608;2023-08-20T02:30:02;20.60;99.90
11925;DHT22;6022;48.768;18.608;2023-08-20T02:32:29;20.60;99.90
11925;DHT22;6022;48.768;18.608;2023-08-20T02:34:58;20.70;99.90
11925;DHT22;6022;48.768;18.608;2023-08-20T02:37:26;20.70;99.90
11925;DHT22;6022;48.768;18.608;2023-08-20T02:39:53;20.70;99.90
11925;DHT22;6022;48.768;18.608;2023-08-20T02:42:20;20.70;99.90
11925;DHT22;6022;48.768;18.608;2023-08-20T02:44:47;20.60;99.90
11925;DHT22;6022;48.768;18.608;2023-08-20T02:47:15;20.50;99.90
11925;DHT22;6022;48.768;18.608;2023-08-20T02:49:42;20.40;99.90
11925;DHT22;6022;48.768;18.608;2023-08-20T02:52:09;20.30;99.90
11925;DHT22;6022;48.768;18.608;2023-08-20T02:54:36;20.40;99.90
11925;DHT22;6022;48.768;18.608;2023-08-20T02:57:03;20.20;99.90
11925;DHT22;6022;48.768;18.608;2023-08-20T02:59:30;20.50;99.90
11925;DHT22;6022;48.768;18.608;2023-08-20T03:02:05;20.40;99.90
11925;DHT22;6022;48.768;18.608;2023-08-20T03:04:32;20.60;99.90
11925;DHT22;6022;48.768;18.608;2023-08-20T03:06:59;20.20;99.90
11925;DHT22;6022;48.768;18.608;2023-08-20T03:09:26;20.30;99.90
11925;DHT22;6022;48.768;18.608;2023-08-20T03:11:54;20.10;99.90
11925;DHT22;6022;48.768;18.608;2023-08-20T03:14:21;20.10;99.90
11925;DHT22;6022;48.768;18.608;2023-08-20T03:16:49;20.40;99.90
11925;DHT22;6022;48.768;18.608;2023-08-20T03:19:16;20.10;99.90
11925;DHT22;6022;48.768;18.608;2023-08-20T03:21:44;20.00;99.90
11925;DHT22;6022;48.768;18.608;2023-08-20T03:24:11;20.20;99.90
11925;DHT22;6022;48.768;18.608;2023-08-20T03:26:39;20.10;99.90
11925;DHT22;6022;48.768;18.608;2023-08-20T03:29:06;20.10;99.90
11925;DHT22;6022;48.768;18.608;2023-08-20T03:31:33;20.30;99.90
11925;DHT22;6022;48.768;18.608;2023-08-20T03:34:00;20.00;99.90
11925;DHT22;6022;48.768;18.608;2023-08-20T03:36:27;20.30;99.90
11925;DHT22;6022;48.768;18.608;2023-08-20T03:38:54;20.40;99.90
11925;DHT22;6022;48.768;18.608;2023-08-20T03:41:21;20.30;99.90
11925;DHT22;6022;48.768;18.608;2023-08-20T03:43:49;20.10;99.90
11925;DHT22;6022;48.768;18.608;2023-08-20T03:46:16;20.20;99.90
11925;DHT22;6022;48.768;18.608;2023-08-20T03:48:43;20.30;99.90
11925;DHT22;6022;48.768;18.608;2023-08-20T03:51:10;20.40;99.90
11925;DHT22;6022;48.768;18.608;2023-08-20T03:53:37;20.20;99.90
11925;DHT22;6022;48.768;18.608;2023-08-20T03:56:05;20.40;99.90
11925;DHT22;6022;48.768;18.608;2023-08-20T03:58:32;20.20;99.90
11925;DHT22;6022;48.768;18.608;2023-08-20T04:00:59;20.30;99.90
11925;DHT22;6022;48.768;18.608;2023-08-20T04:03:26;20.30;99.90
11925;DHT22;6022;48.768;18.608;2023-08-20T04:05:53;20.40;99.90
11925;DHT22;6022;48.768;18.608;2023-08-20T04:08:20;20.10;99.90
11925;DHT22;6022;48.768;18.608;2023-08-20T04:10:48;20.40;99.90
11925;DHT22;6022;48.768;18.608;2023-08-20T04:13:15;20.20;99.90
11925;DHT22;6022;48.768;18.608;2023-08-20T04:15:43;20.30;99.90
11925;DHT22;6022;48.768;18.608;2023-08-20T04:18:10;20.50;99.90
11925;DHT22;6022;48.768;18.608;2023-08-20T04:20:37;20.80;99.90
11925;DHT22;6022;48.768;18.608;2023-08-20T04:23:05;20.90;99.90
11925;DHT22;6022;48.768;18.608;2023-08-20T04:25:32;21.20;99.90
11925;DHT22;6022;48.768;18.608;2023-08-20T04:27:59;21.70;99.90
11925;DHT22;6022;48.768;18.608;2023-08-20T04:30:26;21.70;99.90
11925;DHT22;6022;48.768;18.608;2023-08-20T04:32:54;21.90;99.90
11925;DHT22;6022;48.768;18.608;2023-08-20T04:35:21;21.80;99.90
11925;DHT22;6022;48.768;18.608;2023-08-20T04:37:48;22.30;99.90
11925;DHT22;6022;48.768;18.608;2023-08-20T04:40:15;22.30;99.90
11925;DHT22;6022;48.768;18.608;2023-08-20T04:42:44;22.40;99.90
11925;DHT22;6022;48.768;18.608;2023-08-20T04:45:11;22.70;99.90
11925;DHT22;6022;48.768;18.608;2023-08-20T04:47:39;22.70;99.90
11925;DHT22;6022;48.768;18.608;2023-08-20T04:50:06;22.80;99.90
11925;DHT22;6022;48.768;18.608;2023-08-20T04:52:34;23.50;99.90
11925;DHT22;6022;48.768;18.608;2023-08-20T04:55:02;24.00;99.90
11925;DHT22;6022;48.768;18.608;2023-08-20T04:57:29;24.20;99.90
11925;DHT22;6022;48.768;18.608;2023-08-20T04:59:57;24.70;99.90
11925;DHT22;6022;48.768;18.608;2023-08-20T05:02:24;24.80;99.90
11925;DHT22;6022;48.768;18.608;2023-08-20T05:04:55;25.60;99.90
11925;DHT22;6022;48.768;18.608;2023-08-20T05:07:22;25.80;99.90
11925;DHT22;6022;48.768;18.608;2023-08-20T05:19:06;26.90;99.90
11925;DHT22;6022;48.768;18.608;2023-08-20T05:21:33;27.40;99.90
11925;DHT22;6022;48.768;18.608;2023-08-20T05:24:03;27.50;99.90
11925;DHT22;6022;48.768;18.608;2023-08-20T05:26:35;27.70;99.90
11925;DHT22;6022;48.768;18.608;2023-08-20T05:29:02;28.00;99.90
11925;DHT22;6022;48.768;18.608;2023-08-20T05:31:29;28.30;99.90
11925;DHT22;6022;48.768;18.608;2023-08-20T05:33:57;28.00;99.90
11925;DHT22;6022;48.768;18.608;2023-08-20T05:36:26;28.10;99.90
11925;DHT22;6022;48.768;18.608;2023-08-20T05:38:56;28.30;99.90
11925;DHT22;6022;48.768;18.608;2023-08-20T05:41:23;27.90;99.90
11925;DHT22;6022;48.768;18.608;2023-08-20T05:43:50;28.10;99.90
11925;DHT22;6022;48.768;18.608;2023-08-20T05:46:19;27.40;99.90
11925;DHT22;6022;48.768;18.608;2023-08-20T05:48:46;27.80;99.90
11925;DHT22;6022;48.768;18.608;2023-08-20T05:51:15;28.10;99.90
11925;DHT22;6022;48.768;18.608;2023-08-20T05:53:44;28.10;99.90
11925;DHT22;6022;48.768;18.608;2023-08-20T05:56:11;28.00;99.90
11925;DHT22;6022;48.768;18.608;2023-08-20T05:58:40;28.90;99.90
11925;DHT22;6022;48.768;18.608;2023-08-20T06:01:08;29.60;99.90
11925;DHT22;6022;48.768;18.608;2023-08-20T06:03:39;29.40;99.90
11925;DHT22;6022;48.768;18.608;2023-08-20T06:06:06;29.50;99.90
11925;DHT22;6022;48.768;18.608;2023-08-20T06:08:35;30.00;99.90
11925;DHT22;6022;48.768;18.608;2023-08-20T06:11:02;30.00;99.90
11925;DHT22;6022;48.768;18.608;2023-08-20T06:13:29;29.90;99.90
11925;DHT22;6022;48.768;18.608;2023-08-20T06:15:56;29.80;99.90
11925;DHT22;6022;48.768;18.608;2023-08-20T06:18:23;30.70;99.90
11925;DHT22;6022;48.768;18.608;2023-08-20T06:20:51;30.90;99.90
11925;DHT22;6022;48.768;18.608;2023-08-20T06:23:18;31.00;99.90
11925;DHT22;6022;48.768;18.608;2023-08-20T06:26:05;32.20;99.90
11925;DHT22;6022;48.768;18.608;2023-08-20T06:28:32;32.20;99.90
11925;DHT22;6022;48.768;18.608;2023-08-20T06:30:59;32.70;99.90
11925;DHT22;6022;48.768;18.608;2023-08-20T06:33:27;32.50;99.90
11925;DHT22;6022;48.768;18.608;2023-08-20T06:35:54;32.70;99.90
11925;DHT22;6022;48.768;18.608;2023-08-20T06:38:21;32.70;99.90
11925;DHT22;6022;48.768;18.608;2023-08-20T06:40:48;32.30;99.90
11925;DHT22;6022;48.768;18.608;2023-08-20T06:43:17;32.50;99.90
11925;DHT22;6022;48.768;18.608;2023-08-20T06:45:44;32.00;99.90
11925;DHT22;6022;48.768;18.608;2023-08-20T06:48:11;32.00;99.90
11925;DHT22;6022;48.768;18.608;2023-08-20T06:50:38;32.60;99.90
11925;DHT22;6022;48.768;18.608;2023-08-20T06:53:05;32.80;99.90
11925;DHT22;6022;48.768;18.608;2023-08-20T06:55:33;33.20;99.90
11925;DHT22;6022;48.768;18.608;2023-08-20T06:58:02;32.90;99.90
11925;DHT22;6022;48.768;18.608;2023-08-20T07:00:34;32.60;99.90
11925;DHT22;6022;48.768;18.608;2023-08-20T07:03:02;33.00;99.90
11925;DHT22;6022;48.768;18.608;2023-08-20T07:05:30;33.40;99.90
11925;DHT22;6022;48.768;18.608;2023-08-20T07:07:57;34.00;99.90
11925;DHT22;6022;48.768;18.608;2023-08-20T07:10:24;34.30;99.90
11925;DHT22;6022;48.768;18.608;2023-08-20T07:12:52;34.40;99.90
11925;DHT22;6022;48.768;18.608;2023-08-20T07:15:19;35.70;99.90
11925;DHT22;6022;48.768;18.608;2023-08-20T07:17:48;35.60;99.90
11925;DHT22;6022;48.768;18.608;2023-08-20T07:20:17;35.40;99.70
11925;DHT22;6022;48.768;18.608;2023-08-20T07:22:54;35.70;98.90
11925;DHT22;6022;48.768;18.608;2023-08-20T07:25:23;36.10;96.20
11925;DHT22;6022;48.768;18.608;2023-08-20T07:27:55;36.00;95.70
11925;DHT22;6022;48.768;18.608;2023-08-20T07:30:26;36.40;95.40
11925;DHT22;6022;48.768;18.608;2023-08-20T07:32:57;36.30;95.60
11925;DHT22;6022;48.768;18.608;2023-08-20T07:35:32;37.30;93.10
11925;DHT22;6022;48.768;18.608;2023-08-20T07:38:02;38.10;90.50
11925;DHT22;6022;48.768;18.608;2023-08-20T07:40:33;38.40;87.60
11925;DHT22;6022;48.768;18.608;2023-08-20T07:43:13;38.50;84.40
11925;DHT22;6022;48.768;18.608;2023-08-20T07:45:42;38.10;83.90
11925;DHT22;6022;48.768;18.608;2023-08-20T07:48:10;37.90;84.70
11925;DHT22;6022;48.768;18.608;2023-08-20T07:50:41;38.40;84.50
11925;DHT22;6022;48.768;18.608;2023-08-20T07:53:11;39.30;79.80
11925;DHT22;6022;48.768;18.608;2023-08-20T07:55:46;38.70;77.00
11925;DHT22;6022;48.768;18.608;2023-08-20T07:58:13;38.70;77.70
11925;DHT22;6022;48.768;18.608;2023-08-20T08:00:40;38.50;76.40
11925;DHT22;6022;48.768;18.608;2023-08-20T08:03:11;38.50;76.10
11925;DHT22;6022;48.768;18.608;2023-08-20T08:05:41;38.30;76.90
11925;DHT22;6022;48.768;18.608;2023-08-20T08:08:09;38.50;77.60
11925;DHT22;6022;48.768;18.608;2023-08-20T08:10:43;39.10;75.40
11925;DHT22;6022;48.768;18.608;2023-08-20T08:13:19;39.60;74.60
11925;DHT22;6022;48.768;18.608;2023-08-20T08:15:51;39.70;74.80
11925;DHT22;6022;48.768;18.608;2023-08-20T08:18:20;39.50;73.10
11925;DHT22;6022;48.768;18.608;2023-08-20T08:20:49;38.30;74.80
11925;DHT22;6022;48.768;18.608;2023-08-20T08:23:16;38.20;72.20
11925;DHT22;6022;48.768;18.608;2023-08-20T08:25:48;38.70;73.30
11925;DHT22;6022;48.768;18.608;2023-08-20T08:28:15;38.70;74.20
11925;DHT22;6022;48.768;18.608;2023-08-20T08:30:42;38.60;73.60
11925;DHT22;6022;48.768;18.608;2023-08-20T08:33:09;39.30;74.30
11925;DHT22;6022;48.768;18.608;2023-08-20T08:35:37;39.20;71.70
11925;DHT22;6022;48.768;18.608;2023-08-20T08:38:04;38.20;73.80
11925;DHT22;6022;48.768;18.608;2023-08-20T08:40:33;38.10;73.70
11925;DHT22;6022;48.768;18.608;2023-08-20T08:43:02;37.90;75.20
11925;DHT22;6022;48.768;18.608;2023-08-20T08:45:29;38.00;75.50
11925;DHT22;6022;48.768;18.608;2023-08-20T08:48:02;37.40;76.40
11925;DHT22;6022;48.768;18.608;2023-08-20T08:50:31;37.90;76.20
11925;DHT22;6022;48.768;18.608;2023-08-20T08:52:59;38.10;76.60
11925;DHT22;6022;48.768;18.608;2023-08-20T08:55:26;39.00;74.40
11925;DHT22;6022;48.768;18.608;2023-08-20T08:57:53;37.80;75.00
11925;DHT22;6022;48.768;18.608;2023-08-20T09:00:21;37.70;75.10
11925;DHT22;6022;48.768;18.608;2023-08-20T09:02:48;37.70;75.10
11925;DHT22;6022;48.768;18.608;2023-08-20T09:05:15;37.60;73.20
11925;DHT22;6022;48.768;18.608;2023-08-20T09:07:43;37.60;74.00
11925;DHT22;6022;48.768;18.608;2023-08-20T09:10:16;37.70;74.70
11925;DHT22;6022;48.768;18.608;2023-08-20T09:12:47;37.30;72.70
11925;DHT22;6022;48.768;18.608;2023-08-20T09:15:15;37.20;73.10
11925;DHT22;6022;48.768;18.608;2023-08-20T09:17:42;38.10;74.00
11925;DHT22;6022;48.768;18.608;2023-08-20T09:20:10;37.80;74.60
11925;DHT22;6022;48.768;18.608;2023-08-20T09:22:38;37.00;73.70
11925;DHT22;6022;48.768;18.608;2023-08-20T09:25:06;37.10;75.80
11925;DHT22;6022;48.768;18.608;2023-08-20T09:27:40;37.60;76.00
11925;DHT22;6022;48.768;18.608;2023-08-20T09:30:08;38.10;75.00
11925;DHT22;6022;48.768;18.608;2023-08-20T09:32:37;38.00;71.00
11925;DHT22;6022;48.768;18.608;2023-08-20T09:35:05;38.00;71.00
11925;DHT22;6022;48.768;18.608;2023-08-20T09:37:33;37.40;74.20
11925;DHT22;6022;48.768;18.608;2023-08-20T09:40:01;37.40;74.80
11925;DHT22;6022;48.768;18.608;2023-08-20T09:42:47;37.40;73.60
11925;DHT22;6022;48.768;18.608;2023-08-20T09:45:19;37.30;73.30
11925;DHT22;6022;48.768;18.608;2023-08-20T09:47:54;37.10;70.90
11925;DHT22;6022;48.768;18.608;2023-08-20T09:50:26;36.80;73.30
11925;DHT22;6022;48.768;18.608;2023-08-20T09:52:58;37.80;71.30
11925;DHT22;6022;48.768;18.608;2023-08-20T09:55:33;37.30;73.40
11925;DHT22;6022;48.768;18.608;2023-08-20T10:02:51;38.40;69.00
11925;DHT22;6022;48.768;18.608;2023-08-20T10:05:25;37.80;69.30
11925;DHT22;6022;48.768;18.608;2023-08-20T10:07:59;36.70;68.10
11925;DHT22;6022;48.768;18.608;2023-08-20T10:10:30;36.70;69.20
11925;DHT22;6022;48.768;18.608;2023-08-20T10:13:03;36.90;69.40
11925;DHT22;6022;48.768;18.608;2023-08-20T10:15:39;37.30;69.80
11925;DHT22;6022;48.768;18.608;2023-08-20T10:18:11;37.70;71.50
11925;DHT22;6022;48.768;18.608;2023-08-20T10:20:39;37.00;68.10
11925;DHT22;6022;48.768;18.608;2023-08-20T10:23:12;36.70;69.20
11925;DHT22;6022;48.768;18.608;2023-08-20T10:25:42;36.70;70.50
11925;DHT22;6022;48.768;18.608;2023-08-20T10:28:21;37.50;70.80
11925;DHT22;6022;48.768;18.608;2023-08-20T10:31:10;37.60;71.60
11925;DHT22;6022;48.768;18.608;2023-08-20T10:33:50;37.50;68.10
11925;DHT22;6022;48.768;18.608;2023-08-20T10:36:22;37.20;71.00
11925;DHT22;6022;48.768;18.608;2023-08-20T10:38:58;36.60;68.30
11925;DHT22;6022;48.768;18.608;2023-08-20T10:41:31;36.40;68.50
11925;DHT22;6022;48.768;18.608;2023-08-20T10:44:04;36.20;71.00
11925;DHT22;6022;48.768;18.608;2023-08-20T10:46:33;36.00;73.90
11925;DHT22;6022;48.768;18.608;2023-08-20T10:49:22;35.70;73.00
11925;DHT22;6022;48.768;18.608;2023-08-20T10:51:55;35.80;71.80
11925;DHT22;6022;48.768;18.608;2023-08-20T10:54:33;36.10;70.40
11925;DHT22;6022;48.768;18.608;2023-08-20T10:57:08;36.00;69.10
11925;DHT22;6022;48.768;18.608;2023-08-20T10:59:40;36.00;66.50
11925;DHT22;6022;48.768;18.608;2023-08-20T11:02:12;36.20;67.80
11925;DHT22;6022;48.768;18.608;2023-08-20T11:04:42;37.10;66.80
11925;DHT22;6022;48.768;18.608;2023-08-20T11:07:17;37.10;67.60
11925;DHT22;6022;48.768;18.608;2023-08-20T11:09:45;37.40;72.70
11925;DHT22;6022;48.768;18.608;2023-08-20T11:12:15;37.80;68.10
11925;DHT22;6022;48.768;18.608;2023-08-20T11:14:42;37.70;65.60
11925;DHT22;6022;48.768;18.608;2023-08-20T11:17:15;37.70;65.90
11925;DHT22;6022;48.768;18.608;2023-08-20T11:19:45;37.70;64.40
11925;DHT22;6022;48.768;18.608;2023-08-20T11:22:28;37.60;64.90
11925;DHT22;6022;48.768;18.608;2023-08-20T11:24:56;38.00;66.40
11925;DHT22;6022;48.768;18.608;2023-08-20T11:27:29;38.00;64.40
11925;DHT22;6022;48.768;18.608;2023-08-20T11:29:57;38.00;63.40
11925;DHT22;6022;48.768;18.608;2023-08-20T11:32:30;38.30;64.40
11925;DHT22;6022;48.768;18.608;2023-08-20T11:34:58;38.00;61.20
11925;DHT22;6022;48.768;18.608;2023-08-20T11:37:27;38.20;62.50
11925;DHT22;6022;48.768;18.608;2023-08-20T11:39:56;37.90;59.80
11925;DHT22;6022;48.768;18.608;2023-08-20T11:42:23;37.80;60.50
11925;DHT22;6022;48.768;18.608;2023-08-20T11:44:50;37.80;63.60
11925;DHT22;6022;48.768;18.608;2023-08-20T11:47:18;37.70;61.10
11925;DHT22;6022;48.768;18.608;2023-08-20T11:49:45;37.40;61.50
11925;DHT22;6022;48.768;18.608;2023-08-20T11:52:13;37.60;63.80
11925;DHT22;6022;48.768;18.608;2023-08-20T11:54:42;37.70;64.10
11925;DHT22;6022;48.768;18.608;2023-08-20T11:57:09;37.00;61.00
11925;DHT22;6022;48.768;18.608;2023-08-20T11:59:39;37.40;62.00
11925;DHT22;6022;48.768;18.608;2023-08-20T12:02:06;37.40;60.70
11925;DHT22;6022;48.768;18.608;2023-08-20T12:04:38;36.60;60.20
11925;DHT22;6022;48.768;18.608;2023-08-20T12:07:13;35.90;60.50
11925;DHT22;6022;48.768;18.608;2023-08-20T12:09:41;36.40;62.90
11925;DHT22;6022;48.768;18.608;2023-08-20T12:12:12;36.80;62.10
11925;DHT22;6022;48.768;18.608;2023-08-20T12:14:42;36.70;62.10
11925;DHT22;6022;48.768;18.608;2023-08-20T12:17:10;36.80;65.20
11925;DHT22;6022;48.768;18.608;2023-08-20T12:19:45;36.70;61.70
11925;DHT22;6022;48.768;18.608;2023-08-20T12:22:12;36.70;60.20
11925;DHT22;6022;48.768;18.608;2023-08-20T12:24:39;37.20;60.80
11925;DHT22;6022;48.768;18.608;2023-08-20T12:27:09;37.30;60.90
11925;DHT22;6022;48.768;18.608;2023-08-20T12:29:45;37.20;60.90
11925;DHT22;6022;48.768;18.608;2023-08-20T12:32:15;35.80;59.70
11925;DHT22;6022;48.768;18.608;2023-08-20T12:34:45;36.20;61.60
11925;DHT22;6022;48.768;18.608;2023-08-20T12:37:12;36.60;61.20
11925;DHT22;6022;48.768;18.608;2023-08-20T12:39:40;36.70;59.70
11925;DHT22;6022;48.768;18.608;2023-08-20T12:42:10;37.10;59.80
11925;DHT22;6022;48.768;18.608;2023-08-20T12:44:40;37.30;58.90
11925;DHT22;6022;48.768;18.608;2023-08-20T12:47:09;36.90;60.00
11925;DHT22;6022;48.768;18.608;2023-08-20T12:49:37;36.60;60.80
11925;DHT22;6022;48.768;18.608;2023-08-20T12:52:04;36.50;61.50
11925;DHT22;6022;48.768;18.608;2023-08-20T12:54:31;37.10;61.90
11925;DHT22;6022;48.768;18.608;2023-08-20T12:57:01;37.40;61.10
11925;DHT22;6022;48.768;18.608;2023-08-20T12:59:28;36.80;59.90
11925;DHT22;6022;48.768;18.608;2023-08-20T13:01:58;36.80;60.60
11925;DHT22;6022;48.768;18.608;2023-08-20T13:04:26;36.60;59.40
11925;DHT22;6022;48.768;18.608;2023-08-20T13:07:03;36.50;59.50
11925;DHT22;6022;48.768;18.608;2023-08-20T13:09:30;36.40;60.90
11925;DHT22;6022;48.768;18.608;2023-08-20T13:12:00;36.20;62.10
11925;DHT22;6022;48.768;18.608;2023-08-20T13:14:30;36.10;62.90
11925;DHT22;6022;48.768;18.608;2023-08-20T13:16:58;36.30;63.30
11925;DHT22;6022;48.768;18.608;2023-08-20T13:19:27;35.90;60.70
11925;DHT22;6022;48.768;18.608;2023-08-20T13:21:55;35.70;61.00
11925;DHT22;6022;48.768;18.608;2023-08-20T13:24:22;35.30;61.10
11925;DHT22;6022;48.768;18.608;2023-08-20T13:26:50;35.40;61.50
11925;DHT22;6022;48.768;18.608;2023-08-20T13:29:18;35.30;63.50
11925;DHT22;6022;48.768;18.608;2023-08-20T13:31:46;35.40;63.20
11925;DHT22;6022;48.768;18.608;2023-08-20T13:34:16;35.40;63.90
11925;DHT22;6022;48.768;18.608;2023-08-20T13:36:43;35.50;64.50
11925;DHT22;6022;48.768;18.608;2023-08-20T13:39:14;35.40;65.20
11925;DHT22;6022;48.768;18.608;2023-08-20T13:41:50;35.00;64.30
11925;DHT22;6022;48.768;18.608;2023-08-20T13:44:19;35.20;66.00
11925;DHT22;6022;48.768;18.608;2023-08-20T13:46:46;34.80;64.30
11925;DHT22;6022;48.768;18.608;2023-08-20T13:49:14;35.00;64.30
11925;DHT22;6022;48.768;18.608;2023-08-20T13:51:41;34.80;63.70
11925;DHT22;6022;48.768;18.608;2023-08-20T13:54:08;35.30;67.00
11925;DHT22;6022;48.768;18.608;2023-08-20T13:56:39;35.20;65.70
11925;DHT22;6022;48.768;18.608;2023-08-20T13:59:06;35.20;66.60
11925;DHT22;6022;48.768;18.608;2023-08-20T14:01:36;35.10;67.00
11925;DHT22;6022;48.768;18.608;2023-08-20T14:04:03;34.70;67.00
11925;DHT22;6022;48.768;18.608;2023-08-20T14:06:33;34.80;67.30
11925;DHT22;6022;48.768;18.608;2023-08-20T14:09:00;34.90;67.90
11925;DHT22;6022;48.768;18.608;2023-08-20T14:11:27;34.90;68.00
11925;DHT22;6022;48.768;18.608;2023-08-20T14:13:57;34.60;68.60
11925;DHT22;6022;48.768;18.608;2023-08-20T14:16:24;34.60;69.00
11925;DHT22;6022;48.768;18.608;2023-08-20T14:18:54;34.70;68.70
11925;DHT22;6022;48.768;18.608;2023-08-20T14:21:22;34.90;69.70
11925;DHT22;6022;48.768;18.608;2023-08-20T14:23:49;34.50;69.40
11925;DHT22;6022;48.768;18.608;2023-08-20T14:26:18;34.80;69.70
11925;DHT22;6022;48.768;18.608;2023-08-20T14:28:45;34.30;70.00
11925;DHT22;6022;48.768;18.608;2023-08-20T14:31:12;34.20;71.30
11925;DHT22;6022;48.768;18.608;2023-08-20T14:33:43;34.20;70.80
11925;DHT22;6022;48.768;18.608;2023-08-20T14:36:12;34.60;71.40
11925;DHT22;6022;48.768;18.608;2023-08-20T14:38:42;34.60;71.80
11925;DHT22;6022;48.768;18.608;2023-08-20T14:41:11;34.20;72.80
11925;DHT22;6022;48.768;18.608;2023-08-20T14:43:40;34.30;71.60
11925;DHT22;6022;48.768;18.608;2023-08-20T14:46:08;34.20;72.00
11925;DHT22;6022;48.768;18.608;2023-08-20T14:48:36;33.90;72.90
11925;DHT22;6022;48.768;18.608;2023-08-20T14:51:14;33.90;74.20
11925;DHT22;6022;48.768;18.608;2023-08-20T14:53:47;34.00;74.70
11925;DHT22;6022;48.768;18.608;2023-08-20T14:56:15;33.70;75.90
11925;DHT22;6022;48.768;18.608;2023-08-20T14:58:42;33.70;74.70
11925;DHT22;6022;48.768;18.608;2023-08-20T15:01:12;33.70;76.80
11925;DHT22;6022;48.768;18.608;2023-08-20T15:03:41;33.70;76.20
11925;DHT22;6022;48.768;18.608;2023-08-20T15:06:12;33.80;75.80
11925;DHT22;6022;48.768;18.608;2023-08-20T15:08:42;33.80;76.10
11925;DHT22;6022;48.768;18.608;2023-08-20T15:11:14;33.70;75.80
11925;DHT22;6022;48.768;18.608;2023-08-20T15:13:41;33.90;76.50
11925;DHT22;6022;48.768;18.608;2023-08-20T15:16:12;33.50;76.40
11925;DHT22;6022;48.768;18.608;2023-08-20T15:18:41;33.50;76.60
11925;DHT22;6022;48.768;18.608;2023-08-20T15:21:19;33.50;76.80
11925;DHT22;6022;48.768;18.608;2023-08-20T15:23:55;33.40;77.00
11925;DHT22;6022;48.768;18.608;2023-08-20T15:26:24;33.50;77.20
11925;DHT22;6022;48.768;18.608;2023-08-20T15:28:52;33.40;76.40
11925;DHT22;6022;48.768;18.608;2023-08-20T15:31:19;33.10;81.70
11925;DHT22;6022;48.768;18.608;2023-08-20T15:33:48;33.10;79.20
11925;DHT22;6022;48.768;18.608;2023-08-20T15:36:15;33.00;79.70
11925;DHT22;6022;48.768;18.608;2023-08-20T15:38:43;33.10;79.20
11925;DHT22;6022;48.768;18.608;2023-08-20T15:41:10;33.00;79.80
11925;DHT22;6022;48.768;18.608;2023-08-20T15:43:40;32.70;79.20
11925;DHT22;6022;48.768;18.608;2023-08-20T15:46:10;32.80;79.10
11925;DHT22;6022;48.768;18.608;2023-08-20T15:48:37;33.10;79.90
11925;DHT22;6022;48.768;18.608;2023-08-20T15:51:05;32.80;79.70
11925;DHT22;6022;48.768;18.608;2023-08-20T15:53:32;32.90;80.50
11925;DHT22;6022;48.768;18.608;2023-08-20T15:56:04;32.60;81.00
11925;DHT22;6022;48.768;18.608;2023-08-20T15:58:38;32.80;80.60
11925;DHT22;6022;48.768;18.608;2023-08-20T16:01:06;32.80;80.60
11925;DHT22;6022;48.768;18.608;2023-08-20T16:03:33;32.30;80.50
11925;DHT22;6022;48.768;18.608;2023-08-20T16:06:01;32.30;80.80
11925;DHT22;6022;48.768;18.608;2023-08-20T16:08:28;32.40;81.10